sensor_id;sensor_type;location;lat;lon;timestamp;pressure;altitude;pressure_sealevel;temperature;humidity
67738;BME280;54534;43.612;1.572;2023-02-10T00:00:24;101106.88;;;18.63;41.54
67738;BME280;54534;43.612;1.572;2023-02-10T00:02:49;101113.13;;;18.62;41.62
67738;BME280;54534;43.612;1.572;2023-02-10T00:05:15;101110.59;;;18.59;41.29
67738;BME280;54534;43.612;1.572;2023-02-10T00:07:40;101111.63;;;18.56;41.05
67738;BME280;54534;43.612;1.572;2023-02-10T00:10:06;101106.38;;;18.54;41.34
67738;BME280;54534;43.612;1.572;2023-02-10T00:12:31;101107.31;;;18.53;41.07
67738;BME280;54534;43.612;1.572;2023-02-10T00:14:57;101111.88;;;18.51;40.75
67738;BME280;54534;43.612;1.572;2023-02-10T00:17:22;101103.09;;;18.49;40.85
67738;BME280;54534;43.612;1.572;2023-02-10T00:19:48;101108.47;;;18.48;41.02
67738;BME280;54534;43.612;1.572;2023-02-10T00:22:13;101100.56;;;18.46;40.82
67738;BME280;54534;43.612;1.572;2023-02-10T00:24:39;101101.59;;;18.43;41.03
67738;BME280;54534;43.612;1.572;2023-02-10T00:27:04;101094.53;;;18.42;40.63
67738;BME280;54534;43.612;1.572;2023-02-10T00:29:30;101091.94;;;18.41;40.50
67738;BME280;54534;43.612;1.572;2023-02-10T00:31:57;101084.97;;;18.38;40.57
67738;BME280;54534;43.612;1.572;2023-02-10T00:34:22;101080.56;;;18.37;40.65
67738;BME280;54534;43.612;1.572;2023-02-10T00:36:50;101075.34;;;18.36;40.79
67738;BME280;54534;43.612;1.572;2023-02-10T00:39:16;101079.88;;;18.33;40.29
67738;BME280;54534;43.612;1.572;2023-02-10T00:41:42;101075.47;;;18.32;40.47
67738;BME280;54534;43.612;1.572;2023-02-10T00:44:07;101080.03;;;18.30;40.90
67738;BME280;54534;43.612;1.572;2023-02-10T00:46:33;101080.94;;;18.29;40.30
67738;BME280;54534;43.612;1.572;2023-02-10T00:48:58;101086.38;;;18.28;40.65
67738;BME280;54534;43.612;1.572;2023-02-10T00:51:24;101083.75;;;18.26;40.77
67738;BME280;54534;43.612;1.572;2023-02-10T00:53:49;101081.28;;;18.23;40.34
67738;BME280;54534;43.612;1.572;2023-02-10T00:56:16;101083.13;;;18.21;40.67
67738;BME280;54534;43.612;1.572;2023-02-10T00:58:43;101080.47;;;18.21;40.72
67738;BME280;54534;43.612;1.572;2023-02-10T01:01:09;101078.78;;;18.18;40.62
67738;BME280;54534;43.612;1.572;2023-02-10T01:03:34;101084.19;;;18.17;40.32
67738;BME280;54534;43.612;1.572;2023-02-10T01:06:00;101089.53;;;18.17;40.11
67738;BME280;54534;43.612;1.572;2023-02-10T01:08:26;101086.06;;;18.15;40.51
67738;BME280;54534;43.612;1.572;2023-02-10T01:11:06;101082.63;;;18.12;40.19
67738;BME280;54534;43.612;1.572;2023-02-10T01:13:32;101080.03;;;18.11;40.66
67738;BME280;54534;43.612;1.572;2023-02-10T01:15:59;101088.09;;;18.09;40.52
67738;BME280;54534;43.612;1.572;2023-02-10T01:18:24;101086.34;;;18.08;40.64
67738;BME280;54534;43.612;1.572;2023-02-10T01:20:50;101084.72;;;18.06;40.28
67738;BME280;54534;43.612;1.572;2023-02-10T01:23:15;101084.78;;;18.04;40.22
67738;BME280;54534;43.612;1.572;2023-02-10T01:25:41;101085.72;;;18.03;40.12
67738;BME280;54534;43.612;1.572;2023-02-10T01:28:06;101088.47;;;18.01;40.36
67738;BME280;54534;43.612;1.572;2023-02-10T01:30:32;101084.06;;;18.00;40.05
67738;BME280;54534;43.612;1.572;2023-02-10T01:32:57;101098.28;;;17.99;40.48
67738;BME280;54534;43.612;1.572;2023-02-10T01:35:23;101101.91;;;17.98;40.19
67738;BME280;54534;43.612;1.572;2023-02-10T01:37:49;101097.59;;;17.96;40.14
67738;BME280;54534;43.612;1.572;2023-02-10T01:40:15;101092.34;;;17.94;40.30
67738;BME280;54534;43.612;1.572;2023-02-10T01:42:41;101097.75;;;17.93;40.28
67738;BME280;54534;43.612;1.572;2023-02-10T01:47:42;101095.22;;;17.89;39.94
67738;BME280;54534;43.612;1.572;2023-02-10T01:50:09;101092.63;;;17.88;40.03
67738;BME280;54534;43.612;1.572;2023-02-10T01:52:35;101093.56;;;17.87;40.10
67738;BME280;54534;43.612;1.572;2023-02-10T01:55:10;101091.00;;;17.85;40.20
67738;BME280;54534;43.612;1.572;2023-02-10T01:57:40;101095.53;;;17.83;39.86
67738;BME280;54534;43.612;1.572;2023-02-10T02:00:07;101091.13;;;17.82;40.19
67738;BME280;54534;43.612;1.572;2023-02-10T02:02:32;101095.66;;;17.80;40.24
67738;BME280;54534;43.612;1.572;2023-02-10T02:05:01;101093.00;;;17.80;39.99
67738;BME280;54534;43.612;1.572;2023-02-10T02:07:34;101092.22;;;17.78;39.79
67738;BME280;54534;43.612;1.572;2023-02-10T02:10:02;101089.59;;;17.76;39.84
67738;BME280;54534;43.612;1.572;2023-02-10T02:31:06;101083.06;;;17.64;39.78
67738;BME280;54534;43.612;1.572;2023-02-10T02:36:17;101078.75;;;17.62;39.52
67738;BME280;54534;43.612;1.572;2023-02-10T02:38:44;101083.22;;;17.61;39.75
67738;BME280;54534;43.612;1.572;2023-02-10T02:41:10;101072.63;;;17.60;40.00
67738;BME280;54534;43.612;1.572;2023-02-10T02:43:36;101077.16;;;17.58;40.00
67738;BME280;54534;43.612;1.572;2023-02-10T02:46:42;101079.81;;;17.58;40.01
67738;BME280;54534;43.612;1.572;2023-02-10T02:49:26;101077.28;;;17.54;39.77
67738;BME280;54534;43.612;1.572;2023-02-10T02:52:04;101074.72;;;17.53;39.75
67738;BME280;54534;43.612;1.572;2023-02-10T02:57:45;101073.94;;;17.51;39.64
67738;BME280;54534;43.612;1.572;2023-02-10T03:00:17;101072.19;;;17.50;40.06
67738;BME280;54534;43.612;1.572;2023-02-10T03:02:45;101077.59;;;17.48;39.99
67738;BME280;54534;43.612;1.572;2023-02-10T03:05:17;101066.09;;;17.48;39.88
67738;BME280;54534;43.612;1.572;2023-02-10T03:07:43;101080.31;;;17.47;39.78
67738;BME280;54534;43.612;1.572;2023-02-10T03:10:09;101072.41;;;17.45;40.07
67738;BME280;54534;43.612;1.572;2023-02-10T03:12:34;101074.22;;;17.44;40.01
67738;BME280;54534;43.612;1.572;2023-02-10T03:15:00;101082.25;;;17.43;39.63
67738;BME280;54534;43.612;1.572;2023-02-10T03:17:25;101081.41;;;17.42;39.72
67738;BME280;54534;43.612;1.572;2023-02-10T03:19:50;101082.31;;;17.41;39.79
67738;BME280;54534;43.612;1.572;2023-02-10T03:22:16;101085.06;;;17.40;39.81
67738;BME280;54534;43.612;1.572;2023-02-10T03:24:41;101083.31;;;17.39;39.92
67738;BME280;54534;43.612;1.572;2023-02-10T03:27:06;101077.16;;;17.38;39.67
67738;BME280;54534;43.612;1.572;2023-02-10T03:29:32;101082.47;;;17.38;39.93
67738;BME280;54534;43.612;1.572;2023-02-10T03:31:58;101086.97;;;17.36;39.50
67738;BME280;54534;43.612;1.572;2023-02-10T03:34:27;101087.94;;;17.35;39.69
67738;BME280;54534;43.612;1.572;2023-02-10T03:36:52;101094.16;;;17.34;39.98
67738;BME280;54534;43.612;1.572;2023-02-10T03:39:17;101095.97;;;17.33;39.81
67738;BME280;54534;43.612;1.572;2023-02-10T03:41:43;101094.25;;;17.32;39.83
67738;BME280;54534;43.612;1.572;2023-02-10T03:44:08;101087.19;;;17.31;39.93
67738;BME280;54534;43.612;1.572;2023-02-10T03:46:34;101096.13;;;17.30;39.84
67738;BME280;54534;43.612;1.572;2023-02-10T03:49:02;101095.25;;;17.30;39.51
67738;BME280;54534;43.612;1.572;2023-02-10T03:51:28;101099.63;;;17.31;39.67
67738;BME280;54534;43.612;1.572;2023-02-10T03:53:54;101096.16;;;17.29;39.65
67738;BME280;54534;43.612;1.572;2023-02-10T03:56:19;101097.91;;;17.30;39.64
67738;BME280;54534;43.612;1.572;2023-02-10T03:58:44;101094.38;;;17.29;39.56
67738;BME280;54534;43.612;1.572;2023-02-10T04:01:15;101097.81;;;17.31;39.67
67738;BME280;54534;43.612;1.572;2023-02-10T04:03:41;101084.53;;;17.31;39.58
67738;BME280;54534;43.612;1.572;2023-02-10T04:06:07;101095.97;;;17.33;39.60
67738;BME280;54534;43.612;1.572;2023-02-10T04:08:33;101099.56;;;17.32;39.52
67738;BME280;54534;43.612;1.572;2023-02-10T04:10:58;101095.03;;;17.34;39.24
67738;BME280;54534;43.612;1.572;2023-02-10T04:13:24;101101.22;;;17.35;39.02
67738;BME280;54534;43.612;1.572;2023-02-10T04:16:05;101105.53;;;17.38;39.14
67738;BME280;54534;43.612;1.572;2023-02-10T04:18:32;101097.56;;;17.38;39.27
67738;BME280;54534;43.612;1.572;2023-02-10T04:20:59;101102.81;;;17.39;39.13
67738;BME280;54534;43.612;1.572;2023-02-10T04:23:26;101097.44;;;17.41;39.13
67738;BME280;54534;43.612;1.572;2023-02-10T04:25:52;101109.00;;;17.40;39.26
67738;BME280;54534;43.612;1.572;2023-02-10T04:28:18;101107.13;;;17.42;39.03
67738;BME280;54534;43.612;1.572;2023-02-10T04:30:43;101115.03;;;17.43;38.88
67738;BME280;54534;43.612;1.572;2023-02-10T04:33:08;101109.72;;;17.43;38.93
67738;BME280;54534;43.612;1.572;2023-02-10T04:35:34;101110.56;;;17.44;38.83
67738;BME280;54534;43.612;1.572;2023-02-10T04:37:59;101117.63;;;17.45;39.06
67738;BME280;54534;43.612;1.572;2023-02-10T04:40:29;101114.03;;;17.46;39.11
67738;BME280;54534;43.612;1.572;2023-02-10T04:42:54;101116.69;;;17.46;39.09
67738;BME280;54534;43.612;1.572;2023-02-10T04:45:19;101121.94;;;17.48;38.82
67738;BME280;54534;43.612;1.572;2023-02-10T04:47:45;101117.53;;;17.47;38.71
67738;BME280;54534;43.612;1.572;2023-02-10T04:50:10;101115.75;;;17.47;39.02
67738;BME280;54534;43.612;1.572;2023-02-10T04:52:35;101119.28;;;17.48;38.88
67738;BME280;54534;43.612;1.572;2023-02-10T04:55:01;101116.63;;;17.48;38.97
67738;BME280;54534;43.612;1.572;2023-02-10T04:57:26;101118.34;;;17.49;38.85
67738;BME280;54534;43.612;1.572;2023-02-10T04:59:52;101110.38;;;17.49;38.92
67738;BME280;54534;43.612;1.572;2023-02-10T05:02:17;101112.16;;;17.48;38.96
67738;BME280;54534;43.612;1.572;2023-02-10T05:04:42;101117.50;;;17.48;38.71
67738;BME280;54534;43.612;1.572;2023-02-10T05:07:08;101113.97;;;17.48;39.15
67738;BME280;54534;43.612;1.572;2023-02-10T05:09:34;101121.84;;;17.49;38.81
67738;BME280;54534;43.612;1.572;2023-02-10T05:11:59;101120.16;;;17.48;38.81
67738;BME280;54534;43.612;1.572;2023-02-10T05:14:24;101118.34;;;17.49;38.73
67738;BME280;54534;43.612;1.572;2023-02-10T05:16:50;101126.34;;;17.49;38.94
67738;BME280;54534;43.612;1.572;2023-02-10T05:19:15;101121.03;;;17.49;38.67
67738;BME280;54534;43.612;1.572;2023-02-10T05:21:40;101122.72;;;17.50;38.65
67738;BME280;54534;43.612;1.572;2023-02-10T05:24:06;101128.03;;;17.50;38.63
67738;BME280;54534;43.612;1.572;2023-02-10T05:26:31;101134.31;;;17.49;38.63
67738;BME280;54534;43.612;1.572;2023-02-10T05:28:57;101126.34;;;17.49;38.95
67738;BME280;54534;43.612;1.572;2023-02-10T05:31:22;101138.69;;;17.50;38.73
67738;BME280;54534;43.612;1.572;2023-02-10T05:33:48;101133.38;;;17.50;38.76
67738;BME280;54534;43.612;1.572;2023-02-10T05:36:13;101129.84;;;17.49;38.98
67738;BME280;54534;43.612;1.572;2023-02-10T05:38:39;101128.03;;;17.50;38.91
67738;BME280;54534;43.612;1.572;2023-02-10T05:41:24;101129.84;;;17.49;38.59
67738;BME280;54534;43.612;1.572;2023-02-10T05:43:49;101129.00;;;17.49;39.02
67738;BME280;54534;43.612;1.572;2023-02-10T05:46:15;101134.31;;;17.49;38.56
67738;BME280;54534;43.612;1.572;2023-02-10T05:48:40;101134.31;;;17.49;38.86
67738;BME280;54534;43.612;1.572;2023-02-10T05:51:05;101139.63;;;17.49;38.57
67738;BME280;54534;43.612;1.572;2023-02-10T05:53:31;101136.97;;;17.49;38.96
67738;BME280;54534;43.612;1.572;2023-02-10T05:55:56;101147.63;;;17.49;38.64
67738;BME280;54534;43.612;1.572;2023-02-10T05:58:21;101144.97;;;17.49;38.95
67738;BME280;54534;43.612;1.572;2023-02-10T06:00:47;101147.63;;;17.49;38.81
67738;BME280;54534;43.612;1.572;2023-02-10T06:03:12;101151.13;;;17.49;38.95
67738;BME280;54534;43.612;1.572;2023-02-10T06:05:38;101153.78;;;17.49;38.90
67738;BME280;54534;43.612;1.572;2023-02-10T06:08:04;101156.44;;;17.49;38.77
67738;BME280;54534;43.612;1.572;2023-02-10T06:10:29;101155.50;;;17.50;39.29
67738;BME280;54534;43.612;1.572;2023-02-10T06:12:55;101159.97;;;17.50;39.22
67738;BME280;54534;43.612;1.572;2023-02-10T06:15:20;101152.84;;;17.50;38.99
67738;BME280;54534;43.612;1.572;2023-02-10T06:17:46;101151.94;;;17.51;39.35
67738;BME280;54534;43.612;1.572;2023-02-10T06:20:11;101153.63;;;17.52;39.25
67738;BME280;54534;43.612;1.572;2023-02-10T06:22:36;101159.84;;;17.53;39.38
67738;BME280;54534;43.612;1.572;2023-02-10T06:25:02;101161.56;;;17.54;39.27
67738;BME280;54534;43.612;1.572;2023-02-10T06:27:27;101166.88;;;17.54;39.26
67738;BME280;54534;43.612;1.572;2023-02-10T06:29:53;101159.75;;;17.54;39.59
67738;BME280;54534;43.612;1.572;2023-02-10T06:32:18;101162.41;;;17.54;39.47
67738;BME280;54534;43.612;1.572;2023-02-10T06:34:44;101161.50;;;17.55;39.26
67738;BME280;54534;43.612;1.572;2023-02-10T06:37:10;101158.81;;;17.55;39.35
67738;BME280;54534;43.612;1.572;2023-02-10T06:39:36;101165.03;;;17.56;39.14
67738;BME280;54534;43.612;1.572;2023-02-10T06:42:01;101173.00;;;17.56;39.21
67738;BME280;54534;43.612;1.572;2023-02-10T06:44:27;101170.34;;;17.56;39.38
67738;BME280;54534;43.612;1.572;2023-02-10T06:46:52;101168.47;;;17.58;39.53
67738;BME280;54534;43.612;1.572;2023-02-10T06:49:18;101170.25;;;17.58;39.27
67738;BME280;54534;43.612;1.572;2023-02-10T06:51:43;101169.34;;;17.59;39.53
67738;BME280;54534;43.612;1.572;2023-02-10T06:54:08;101175.53;;;17.59;39.42
67738;BME280;54534;43.612;1.572;2023-02-10T06:56:34;101175.53;;;17.59;39.40
67738;BME280;54534;43.612;1.572;2023-02-10T06:58:59;101172.88;;;17.59;39.22
67738;BME280;54534;43.612;1.572;2023-02-10T07:01:25;101171.03;;;17.60;39.34
67738;BME280;54534;43.612;1.572;2023-02-10T07:03:50;101178.09;;;17.61;39.01
67738;BME280;54534;43.612;1.572;2023-02-10T07:06:16;101185.22;;;17.60;39.09
67738;BME280;54534;43.612;1.572;2023-02-10T07:08:43;101181.69;;;17.60;39.08
67738;BME280;54534;43.612;1.572;2023-02-10T07:11:09;101193.19;;;17.60;39.47
67738;BME280;54534;43.612;1.572;2023-02-10T07:13:34;101185.22;;;17.60;39.17
67738;BME280;54534;43.612;1.572;2023-02-10T07:16:01;101192.28;;;17.61;39.10
67738;BME280;54534;43.612;1.572;2023-02-10T07:18:26;101193.19;;;17.60;39.38
67738;BME280;54534;43.612;1.572;2023-02-10T07:20:53;101200.31;;;17.60;39.29
67738;BME280;54534;43.612;1.572;2023-02-10T07:23:18;101195.84;;;17.60;39.32
67738;BME280;54534;43.612;1.572;2023-02-10T07:25:43;101196.81;;;17.59;39.42
67738;BME280;54534;43.612;1.572;2023-02-10T07:28:09;101205.72;;;17.58;39.42
67738;BME280;54534;43.612;1.572;2023-02-10T07:30:35;101205.72;;;17.58;38.80
67738;BME280;54534;43.612;1.572;2023-02-10T07:33:00;101205.72;;;17.58;38.58
67738;BME280;54534;43.612;1.572;2023-02-10T07:35:27;101206.56;;;17.59;39.08
67738;BME280;54534;43.612;1.572;2023-02-10T07:37:53;101215.56;;;17.56;38.85
67738;BME280;54534;43.612;1.572;2023-02-10T07:40:18;101215.47;;;17.58;39.02
67738;BME280;54534;43.612;1.572;2023-02-10T07:42:44;101218.13;;;17.58;38.83
67738;BME280;54534;43.612;1.572;2023-02-10T07:45:09;101226.13;;;17.58;38.83
67738;BME280;54534;43.612;1.572;2023-02-10T07:47:34;101220.88;;;17.56;39.14
67738;BME280;54534;43.612;1.572;2023-02-10T07:50:01;101223.44;;;17.58;38.68
67738;BME280;54534;43.612;1.572;2023-02-10T07:52:26;101226.13;;;17.58;38.96
67738;BME280;54534;43.612;1.572;2023-02-10T07:54:52;101225.25;;;17.57;38.92
67738;BME280;54534;43.612;1.572;2023-02-10T07:57:17;101226.19;;;17.56;38.82
67738;BME280;54534;43.612;1.572;2023-02-10T07:59:43;101227.91;;;17.57;38.98
67738;BME280;54534;43.612;1.572;2023-02-10T08:02:12;101222.59;;;17.57;38.79
67738;BME280;54534;43.612;1.572;2023-02-10T08:04:37;101226.13;;;17.58;38.59
67738;BME280;54534;43.612;1.572;2023-02-10T08:07:03;101222.59;;;17.57;38.84
67738;BME280;54534;43.612;1.572;2023-02-10T08:09:29;101225.25;;;17.57;38.55
67738;BME280;54534;43.612;1.572;2023-02-10T08:11:54;101220.78;;;17.58;38.39
67738;BME280;54534;43.612;1.572;2023-02-10T08:14:20;101219.94;;;17.57;38.79
67738;BME280;54534;43.612;1.572;2023-02-10T08:16:45;101229.78;;;17.55;38.78
67738;BME280;54534;43.612;1.572;2023-02-10T08:19:11;101221.78;;;17.55;38.45
67738;BME280;54534;43.612;1.572;2023-02-10T08:21:37;101228.84;;;17.56;38.73
67738;BME280;54534;43.612;1.572;2023-02-10T08:24:02;101223.53;;;17.56;38.25
67738;BME280;54534;43.612;1.572;2023-02-10T08:26:28;101227.13;;;17.55;38.34
67738;BME280;54534;43.612;1.572;2023-02-10T08:28:53;101229.78;;;17.55;38.65
67738;BME280;54534;43.612;1.572;2023-02-10T08:31:20;101226.25;;;17.54;38.40
67738;BME280;54534;43.612;1.572;2023-02-10T08:33:46;101225.31;;;17.55;38.32
67738;BME280;54534;43.612;1.572;2023-02-10T08:36:13;101226.19;;;17.56;38.55
67738;BME280;54534;43.612;1.572;2023-02-10T08:38:39;101227.97;;;17.55;38.50
67738;BME280;54534;43.612;1.572;2023-02-10T08:41:04;101222.66;;;17.55;38.52
67738;BME280;54534;43.612;1.572;2023-02-10T08:43:30;101221.78;;;17.55;38.40
67738;BME280;54534;43.612;1.572;2023-02-10T08:45:57;101220.00;;;17.55;38.50
67738;BME280;54534;43.612;1.572;2023-02-10T08:48:23;101224.44;;;17.55;38.23
67738;BME280;54534;43.612;1.572;2023-02-10T08:50:49;101228.84;;;17.56;38.24
67738;BME280;54534;43.612;1.572;2023-02-10T08:53:14;101229.78;;;17.55;38.45
67738;BME280;54534;43.612;1.572;2023-02-10T08:55:40;101228.84;;;17.56;38.39
67738;BME280;54534;43.612;1.572;2023-02-10T08:58:05;101229.78;;;17.55;38.38
67738;BME280;54534;43.612;1.572;2023-02-10T09:00:31;101228.91;;;17.54;38.47
67738;BME280;54534;43.612;1.572;2023-02-10T09:02:57;101229.78;;;17.55;38.51
67738;BME280;54534;43.612;1.572;2023-02-10T09:05:22;101228.91;;;17.54;38.14
67738;BME280;54534;43.612;1.572;2023-02-10T09:07:48;101228.06;;;17.54;38.34
67738;BME280;54534;43.612;1.572;2023-02-10T09:10:14;101234.31;;;17.53;38.31
67738;BME280;54534;43.612;1.572;2023-02-10T09:12:41;101232.50;;;17.53;38.15
67738;BME280;54534;43.612;1.572;2023-02-10T09:15:07;101236.03;;;17.54;37.97
67738;BME280;54534;43.612;1.572;2023-02-10T09:17:33;101236.03;;;17.54;38.04
67738;BME280;54534;43.612;1.572;2023-02-10T09:19:58;101232.50;;;17.53;38.04
67738;BME280;54534;43.612;1.572;2023-02-10T09:22:24;101240.50;;;17.53;38.24
67738;BME280;54534;43.612;1.572;2023-02-10T09:24:49;101239.63;;;17.53;38.34
67738;BME280;54534;43.612;1.572;2023-02-10T09:27:18;101234.31;;;17.53;38.29
67738;BME280;54534;43.612;1.572;2023-02-10T09:29:44;101230.78;;;17.52;38.27
67738;BME280;54534;43.612;1.572;2023-02-10T09:32:09;101228.97;;;17.53;38.39
67738;BME280;54534;43.612;1.572;2023-02-10T09:34:35;101231.63;;;17.53;38.29
67738;BME280;54534;43.612;1.572;2023-02-10T09:37:01;101222.75;;;17.54;38.25
67738;BME280;54534;43.612;1.572;2023-02-10T09:39:28;101235.16;;;17.53;37.99
67738;BME280;54534;43.612;1.572;2023-02-10T09:41:57;101236.97;;;17.53;37.99
67738;BME280;54534;43.612;1.572;2023-02-10T09:44:26;101237.84;;;17.53;38.21
67738;BME280;54534;43.612;1.572;2023-02-10T09:52:28;101236.09;;;17.52;38.02
67738;BME280;54534;43.612;1.572;2023-02-10T09:54:55;101240.53;;;17.52;37.85
67738;BME280;54534;43.612;1.572;2023-02-10T09:57:45;101244.94;;;17.53;37.97
67738;BME280;54534;43.612;1.572;2023-02-10T10:02:50;101240.53;;;17.52;37.88
67738;BME280;54534;43.612;1.572;2023-02-10T10:05:25;101249.38;;;17.52;38.01
67738;BME280;54534;43.612;1.572;2023-02-10T10:07:56;101244.06;;;17.52;37.81
67738;BME280;54534;43.612;1.572;2023-02-10T10:10:31;101241.41;;;17.52;37.83
67738;BME280;54534;43.612;1.572;2023-02-10T10:12:58;101246.72;;;17.52;37.83
67738;BME280;54534;43.612;1.572;2023-02-10T10:15:27;101244.06;;;17.52;37.94
67738;BME280;54534;43.612;1.572;2023-02-10T10:18:35;101248.50;;;17.52;37.73
67738;BME280;54534;43.612;1.572;2023-02-10T10:21:24;101250.25;;;17.53;37.75
67738;BME280;54534;43.612;1.572;2023-02-10T10:35:18;101236.16;;;17.51;37.78
67738;BME280;54534;43.612;1.572;2023-02-10T10:37:45;101235.22;;;17.52;38.08
67738;BME280;54534;43.612;1.572;2023-02-10T10:40:24;101232.56;;;17.52;38.18
67738;BME280;54534;43.612;1.572;2023-02-10T10:42:52;101224.66;;;17.50;37.99
67738;BME280;54534;43.612;1.572;2023-02-10T10:45:28;101229.97;;;17.50;38.03
67738;BME280;54534;43.612;1.572;2023-02-10T10:48:04;101231.72;;;17.51;37.88
67738;BME280;54534;43.612;1.572;2023-02-10T10:50:31;101223.78;;;17.50;37.82
67738;BME280;54534;43.612;1.572;2023-02-10T10:52:57;101228.25;;;17.49;38.05
67738;BME280;54534;43.612;1.572;2023-02-10T10:55:34;101220.25;;;17.49;37.94
67738;BME280;54534;43.612;1.572;2023-02-10T10:58:03;101216.75;;;17.49;37.85
67738;BME280;54534;43.612;1.572;2023-02-10T11:00:33;101223.88;;;17.48;37.76
67738;BME280;54534;43.612;1.572;2023-02-10T11:03:03;101221.25;;;17.47;38.14
67738;BME280;54534;43.612;1.572;2023-02-10T11:05:32;101219.47;;;17.47;37.90
67738;BME280;54534;43.612;1.572;2023-02-10T11:07:59;101218.59;;;17.47;37.92
67738;BME280;54534;43.612;1.572;2023-02-10T11:12:57;101210.69;;;17.45;37.87
67738;BME280;54534;43.612;1.572;2023-02-10T11:17:52;101205.47;;;17.43;38.13
67738;BME280;54534;43.612;1.572;2023-02-10T11:20:28;101202.81;;;17.43;37.77
67738;BME280;54534;43.612;1.572;2023-02-10T11:23:23;101203.72;;;17.42;38.04
67738;BME280;54534;43.612;1.572;2023-02-10T11:26:02;101203.81;;;17.41;37.99
67738;BME280;54534;43.612;1.572;2023-02-10T11:28:30;101201.13;;;17.41;38.19
67738;BME280;54534;43.612;1.572;2023-02-10T11:36:36;101182.66;;;17.38;37.86
67738;BME280;54534;43.612;1.572;2023-02-10T11:39:05;101178.25;;;17.37;38.04
67738;BME280;54534;43.612;1.572;2023-02-10T11:41:32;101191.63;;;17.35;38.14
67738;BME280;54534;43.612;1.572;2023-02-10T11:43:59;101181.00;;;17.35;38.13
67738;BME280;54534;43.612;1.572;2023-02-10T11:46:28;101183.66;;;17.35;38.10
67738;BME280;54534;43.612;1.572;2023-02-10T11:49:05;101178.38;;;17.33;38.27
67738;BME280;54534;43.612;1.572;2023-02-10T11:51:51;101174.00;;;17.32;38.15
67738;BME280;54534;43.612;1.572;2023-02-10T11:54:17;101167.81;;;17.32;37.94
67738;BME280;54534;43.612;1.572;2023-02-10T11:57:16;101163.44;;;17.31;37.90
67738;BME280;54534;43.612;1.572;2023-02-10T12:00:25;101161.75;;;17.28;37.95
67738;BME280;54534;43.612;1.572;2023-02-10T12:03:22;101160.94;;;17.28;37.91
67738;BME280;54534;43.612;1.572;2023-02-10T12:06:30;101152.13;;;17.26;37.95
67738;BME280;54534;43.612;1.572;2023-02-10T12:11:46;101142.50;;;17.23;38.23
67738;BME280;54534;43.612;1.572;2023-02-10T12:19:39;101142.56;;;17.21;37.98
67738;BME280;54534;43.612;1.572;2023-02-10T12:25:23;101136.47;;;17.19;38.16
67738;BME280;54534;43.612;1.572;2023-02-10T12:30:49;101124.16;;;17.17;37.94
67738;BME280;54534;43.612;1.572;2023-02-10T12:33:34;101125.97;;;17.16;38.15
67738;BME280;54534;43.612;1.572;2023-02-10T12:36:29;101118.88;;;17.15;37.96
67738;BME280;54534;43.612;1.572;2023-02-10T12:55:22;101102.34;;;17.08;38.02
67738;BME280;54534;43.612;1.572;2023-02-10T13:03:34;101098.03;;;17.06;38.19
67738;BME280;54534;43.612;1.572;2023-02-10T13:09:00;101093.63;;;17.05;38.30
67738;BME280;54534;43.612;1.572;2023-02-10T13:14:28;101086.66;;;17.02;38.38
67738;BME280;54534;43.612;1.572;2023-02-10T13:16:56;101085.78;;;17.01;38.28
67738;BME280;54534;43.612;1.572;2023-02-10T13:19:39;101075.16;;;17.01;38.14
67738;BME280;54534;43.612;1.572;2023-02-10T13:22:15;101072.56;;;17.00;38.50
67738;BME280;54534;43.612;1.572;2023-02-10T13:25:29;101076.97;;;17.01;38.03
67738;BME280;54534;43.612;1.572;2023-02-10T13:33:16;101069.13;;;16.98;38.24
67738;BME280;54534;43.612;1.572;2023-02-10T13:35:44;101064.69;;;16.98;38.23
67738;BME280;54534;43.612;1.572;2023-02-10T13:38:16;101059.38;;;16.98;38.23
67738;BME280;54534;43.612;1.572;2023-02-10T13:40:49;101050.44;;;16.99;37.99
67738;BME280;54534;43.612;1.572;2023-02-10T13:43:31;101052.19;;;17.00;38.41
67738;BME280;54534;43.612;1.572;2023-02-10T13:45:58;101040.59;;;17.01;37.94
67738;BME280;54534;43.612;1.572;2023-02-10T13:48:44;101037.91;;;17.03;38.15
67738;BME280;54534;43.612;1.572;2023-02-10T13:51:09;101036.94;;;17.04;38.29
67738;BME280;54534;43.612;1.572;2023-02-10T13:58:51;101027.84;;;17.10;38.10
67738;BME280;54534;43.612;1.572;2023-02-10T14:04:08;101018.00;;;17.12;38.04
67738;BME280;54534;43.612;1.572;2023-02-10T14:06:52;101016.16;;;17.14;37.92
67738;BME280;54534;43.612;1.572;2023-02-10T14:09:33;101020.44;;;17.18;37.90
67738;BME280;54534;43.612;1.572;2023-02-10T14:12:01;101017.78;;;17.18;38.05
67738;BME280;54534;43.612;1.572;2023-02-10T14:14:36;101009.72;;;17.20;37.91
67738;BME280;54534;43.612;1.572;2023-02-10T14:19:44;101003.38;;;17.22;38.00
67738;BME280;54534;43.612;1.572;2023-02-10T14:24:56;101006.78;;;17.26;38.01
67738;BME280;54534;43.612;1.572;2023-02-10T14:27:25;101001.47;;;17.26;37.67
67738;BME280;54534;43.612;1.572;2023-02-10T14:29:54;101001.41;;;17.28;37.91
67738;BME280;54534;43.612;1.572;2023-02-10T14:32:20;100997.81;;;17.29;37.85
67738;BME280;54534;43.612;1.572;2023-02-10T14:35:03;100994.22;;;17.30;37.83
67738;BME280;54534;43.612;1.572;2023-02-10T14:37:31;100995.09;;;17.30;37.79
67738;BME280;54534;43.612;1.572;2023-02-10T14:39:59;100991.47;;;17.31;37.80
67738;BME280;54534;43.612;1.572;2023-02-10T14:42:29;100988.78;;;17.33;38.00
67738;BME280;54534;43.612;1.572;2023-02-10T14:44:57;100996.75;;;17.33;37.71
67738;BME280;54534;43.612;1.572;2023-02-10T14:47:29;100992.25;;;17.33;38.00
67738;BME280;54534;43.612;1.572;2023-02-10T14:49:56;100984.25;;;17.35;37.93
67738;BME280;54534;43.612;1.572;2023-02-10T14:52:33;100982.44;;;17.36;37.96
67738;BME280;54534;43.612;1.572;2023-02-10T14:54:59;100981.50;;;17.37;37.69